sensor_id;sensor_type;location;lat;lon;timestamp;P1;durP1;ratioP1;P2;durP2;ratioP2
27740;SDS011;15134;48.768;9.184;2024-03-02T00:01:10;809.67;;;675.70;;
27740;SDS011;15134;48.768;9.184;2024-03-02T00:03:36;807.00;;;673.95;;
27740;SDS011;15134;48.768;9.184;2024-03-02T00:06:03;803.95;;;664.45;;
27740;SDS011;15134;48.768;9.184;2024-03-02T00:08:29;807.50;;;669.78;;
27740;SDS011;15134;48.768;9.184;2024-03-02T00:10:59;808.53;;;675.00;;
27740;SDS011;15134;48.768;9.184;2024-03-02T00:13:26;808.40;;;670.70;;
27740;SDS011;15134;48.768;9.184;2024-03-02T00:15:53;812.22;;;681.17;;
27740;SDS011;15134;48.768;9.184;2024-03-02T00:18:30;806.65;;;675.80;;
27740;SDS011;15134;48.768;9.184;2024-03-02T00:20:58;809.60;;;680.22;;
27740;SDS011;15134;48.768;9.184;2024-03-02T00:23:27;804.20;;;660.28;;
27740;SDS011;15134;48.768;9.184;2024-03-02T00:25:55;805.40;;;668.33;;
27740;SDS011;15134;48.768;9.184;2024-03-02T00:28:25;805.42;;;671.42;;
27740;SDS011;15134;48.768;9.184;2024-03-02T00:30:51;806.33;;;669.65;;
27740;SDS011;15134;48.768;9.184;2024-03-02T00:33:20;805.28;;;669.60;;
27740;SDS011;15134;48.768;9.184;2024-03-02T00:35:47;812.85;;;685.17;;
27740;SDS011;15134;48.768;9.184;2024-03-02T00:38:14;806.05;;;668.08;;
27740;SDS011;15134;48.768;9.184;2024-03-02T00:40:44;807.22;;;671.83;;
27740;SDS011;15134;48.768;9.184;2024-03-02T00:43:54;806.50;;;670.13;;
27740;SDS011;15134;48.768;9.184;2024-03-02T00:46:02;809.25;;;679.75;;
27740;SDS011;15134;48.768;9.184;2024-03-02T00:48:28;804.42;;;666.42;;
27740;SDS011;15134;48.768;9.184;2024-03-02T00:50:56;804.15;;;668.63;;
27740;SDS011;15134;48.768;9.184;2024-03-02T00:53:23;808.10;;;675.85;;
27740;SDS011;15134;48.768;9.184;2024-03-02T00:55:51;805.58;;;671.97;;
27740;SDS011;15134;48.768;9.184;2024-03-02T00:58:17;804.72;;;673.03;;
27740;SDS011;15134;48.768;9.184;2024-03-02T01:00:43;802.57;;;664.50;;
27740;SDS011;15134;48.768;9.184;2024-03-02T01:03:10;804.80;;;670.05;;
27740;SDS011;15134;48.768;9.184;2024-03-02T01:05:36;806.17;;;671.45;;
27740;SDS011;15134;48.768;9.184;2024-03-02T01:08:02;805.37;;;672.97;;
27740;SDS011;15134;48.768;9.184;2024-03-02T01:10:28;806.85;;;673.80;;
27740;SDS011;15134;48.768;9.184;2024-03-02T01:12:53;804.92;;;672.40;;
27740;SDS011;15134;48.768;9.184;2024-03-02T01:15:19;804.67;;;668.70;;
27740;SDS011;15134;48.768;9.184;2024-03-02T01:17:47;804.10;;;668.90;;
27740;SDS011;15134;48.768;9.184;2024-03-02T01:20:14;805.50;;;672.88;;
27740;SDS011;15134;48.768;9.184;2024-03-02T01:22:40;803.22;;;669.53;;
27740;SDS011;15134;48.768;9.184;2024-03-02T01:25:06;801.60;;;664.28;;
27740;SDS011;15134;48.768;9.184;2024-03-02T01:27:33;806.35;;;674.85;;
27740;SDS011;15134;48.768;9.184;2024-03-02T01:29:59;809.50;;;679.73;;
27740;SDS011;15134;48.768;9.184;2024-03-02T01:32:25;805.83;;;669.90;;
27740;SDS011;15134;48.768;9.184;2024-03-02T01:34:51;804.83;;;669.45;;
27740;SDS011;15134;48.768;9.184;2024-03-02T01:37:17;804.03;;;667.67;;
27740;SDS011;15134;48.768;9.184;2024-03-02T01:39:42;800.23;;;659.50;;
27740;SDS011;15134;48.768;9.184;2024-03-02T01:42:08;804.97;;;667.85;;
27740;SDS011;15134;48.768;9.184;2024-03-02T01:44:35;808.40;;;675.10;;
27740;SDS011;15134;48.768;9.184;2024-03-02T01:47:01;805.28;;;667.35;;
27740;SDS011;15134;48.768;9.184;2024-03-02T01:49:27;800.17;;;654.85;;
27740;SDS011;15134;48.768;9.184;2024-03-02T01:51:53;802.00;;;660.07;;
27740;SDS011;15134;48.768;9.184;2024-03-02T01:54:20;803.00;;;663.77;;
27740;SDS011;15134;48.768;9.184;2024-03-02T01:56:45;802.58;;;657.03;;
27740;SDS011;15134;48.768;9.184;2024-03-02T01:59:11;804.83;;;664.33;;
27740;SDS011;15134;48.768;9.184;2024-03-02T02:01:39;803.10;;;662.60;;
27740;SDS011;15134;48.768;9.184;2024-03-02T02:04:05;803.25;;;664.13;;
27740;SDS011;15134;48.768;9.184;2024-03-02T02:06:31;806.10;;;666.90;;
27740;SDS011;15134;48.768;9.184;2024-03-02T02:08:57;808.80;;;673.17;;
27740;SDS011;15134;48.768;9.184;2024-03-02T02:11:24;807.92;;;673.95;;
27740;SDS011;15134;48.768;9.184;2024-03-02T02:13:50;803.42;;;664.33;;
27740;SDS011;15134;48.768;9.184;2024-03-02T02:16:16;802.83;;;663.33;;
27740;SDS011;15134;48.768;9.184;2024-03-02T02:18:41;804.57;;;664.73;;
27740;SDS011;15134;48.768;9.184;2024-03-02T02:21:07;805.15;;;666.20;;
27740;SDS011;15134;48.768;9.184;2024-03-02T02:23:33;803.25;;;661.10;;
27740;SDS011;15134;48.768;9.184;2024-03-02T02:25:59;801.67;;;660.87;;
27740;SDS011;15134;48.768;9.184;2024-03-02T02:28:25;807.92;;;672.03;;
27740;SDS011;15134;48.768;9.184;2024-03-02T02:30:50;804.55;;;667.97;;
27740;SDS011;15134;48.768;9.184;2024-03-02T02:33:16;805.28;;;665.85;;
27740;SDS011;15134;48.768;9.184;2024-03-02T02:35:42;802.80;;;664.20;;
27740;SDS011;15134;48.768;9.184;2024-03-02T02:38:08;804.87;;;666.17;;
27740;SDS011;15134;48.768;9.184;2024-03-02T02:40:33;801.15;;;655.80;;
27740;SDS011;15134;48.768;9.184;2024-03-02T02:42:59;802.47;;;659.47;;
27740;SDS011;15134;48.768;9.184;2024-03-02T02:45:25;805.38;;;665.38;;
27740;SDS011;15134;48.768;9.184;2024-03-02T02:47:50;802.27;;;660.70;;
27740;SDS011;15134;48.768;9.184;2024-03-02T02:50:16;801.20;;;653.63;;
27740;SDS011;15134;48.768;9.184;2024-03-02T02:52:43;806.10;;;664.47;;
27740;SDS011;15134;48.768;9.184;2024-03-02T02:55:09;802.97;;;661.17;;
27740;SDS011;15134;48.768;9.184;2024-03-02T02:57:36;804.03;;;663.28;;
27740;SDS011;15134;48.768;9.184;2024-03-02T03:00:07;803.22;;;661.88;;
27740;SDS011;15134;48.768;9.184;2024-03-02T03:02:45;803.28;;;659.25;;
27740;SDS011;15134;48.768;9.184;2024-03-02T03:05:13;804.47;;;664.08;;
27740;SDS011;15134;48.768;9.184;2024-03-02T03:07:42;803.35;;;658.30;;
27740;SDS011;15134;48.768;9.184;2024-03-02T03:10:09;802.53;;;658.37;;
27740;SDS011;15134;48.768;9.184;2024-03-02T03:12:35;802.97;;;660.25;;
27740;SDS011;15134;48.768;9.184;2024-03-02T03:15:02;802.25;;;658.13;;
27740;SDS011;15134;48.768;9.184;2024-03-02T03:17:29;804.45;;;655.75;;
27740;SDS011;15134;48.768;9.184;2024-03-02T03:19:55;801.50;;;656.67;;
27740;SDS011;15134;48.768;9.184;2024-03-02T03:22:21;801.13;;;649.60;;
27740;SDS011;15134;48.768;9.184;2024-03-02T03:24:47;802.37;;;654.40;;
27740;SDS011;15134;48.768;9.184;2024-03-02T03:27:12;799.45;;;651.72;;
27740;SDS011;15134;48.768;9.184;2024-03-02T03:29:38;801.42;;;654.63;;
27740;SDS011;15134;48.768;9.184;2024-03-02T03:32:04;801.13;;;655.20;;
27740;SDS011;15134;48.768;9.184;2024-03-02T03:34:34;800.53;;;650.85;;
27740;SDS011;15134;48.768;9.184;2024-03-02T03:37:00;800.10;;;652.80;;
27740;SDS011;15134;48.768;9.184;2024-03-02T03:39:26;799.33;;;654.15;;
27740;SDS011;15134;48.768;9.184;2024-03-02T03:41:53;801.47;;;656.45;;
27740;SDS011;15134;48.768;9.184;2024-03-02T03:44:19;801.70;;;657.40;;
27740;SDS011;15134;48.768;9.184;2024-03-02T03:46:45;803.90;;;655.93;;
27740;SDS011;15134;48.768;9.184;2024-03-02T03:49:11;801.65;;;657.10;;
27740;SDS011;15134;48.768;9.184;2024-03-02T03:51:37;801.20;;;659.13;;
27740;SDS011;15134;48.768;9.184;2024-03-02T03:54:02;800.53;;;656.23;;
27740;SDS011;15134;48.768;9.184;2024-03-02T03:56:28;798.38;;;651.25;;
27740;SDS011;15134;48.768;9.184;2024-03-02T03:58:54;800.47;;;652.35;;
27740;SDS011;15134;48.768;9.184;2024-03-02T04:01:20;802.70;;;660.38;;
27740;SDS011;15134;48.768;9.184;2024-03-02T04:03:47;801.08;;;651.47;;
27740;SDS011;15134;48.768;9.184;2024-03-02T04:06:13;804.08;;;657.80;;
27740;SDS011;15134;48.768;9.184;2024-03-02T04:08:41;801.10;;;656.08;;
27740;SDS011;15134;48.768;9.184;2024-03-02T04:11:07;806.37;;;659.67;;
27740;SDS011;15134;48.768;9.184;2024-03-02T04:13:33;801.92;;;655.88;;
27740;SDS011;15134;48.768;9.184;2024-03-02T04:15:58;803.65;;;660.05;;
27740;SDS011;15134;48.768;9.184;2024-03-02T04:18:24;802.47;;;651.37;;
27740;SDS011;15134;48.768;9.184;2024-03-02T04:20:50;804.13;;;657.90;;
27740;SDS011;15134;48.768;9.184;2024-03-02T04:23:16;803.60;;;653.17;;
27740;SDS011;15134;48.768;9.184;2024-03-02T04:25:42;799.97;;;649.67;;
27740;SDS011;15134;48.768;9.184;2024-03-02T04:28:07;799.55;;;646.67;;
27740;SDS011;15134;48.768;9.184;2024-03-02T04:30:33;802.53;;;653.25;;
27740;SDS011;15134;48.768;9.184;2024-03-02T04:32:59;801.27;;;650.23;;
27740;SDS011;15134;48.768;9.184;2024-03-02T04:35:26;800.15;;;650.05;;
27740;SDS011;15134;48.768;9.184;2024-03-02T04:37:51;802.28;;;655.10;;
27740;SDS011;15134;48.768;9.184;2024-03-02T04:40:19;801.63;;;653.70;;
27740;SDS011;15134;48.768;9.184;2024-03-02T04:42:44;802.83;;;651.05;;
27740;SDS011;15134;48.768;9.184;2024-03-02T04:45:10;804.17;;;660.03;;
27740;SDS011;15134;48.768;9.184;2024-03-02T04:47:36;797.90;;;647.57;;
27740;SDS011;15134;48.768;9.184;2024-03-02T04:50:01;806.60;;;662.20;;
27740;SDS011;15134;48.768;9.184;2024-03-02T04:52:27;803.33;;;655.85;;
27740;SDS011;15134;48.768;9.184;2024-03-02T04:54:53;802.43;;;653.00;;
27740;SDS011;15134;48.768;9.184;2024-03-02T04:57:37;801.70;;;649.78;;
27740;SDS011;15134;48.768;9.184;2024-03-02T05:00:03;799.23;;;647.53;;
27740;SDS011;15134;48.768;9.184;2024-03-02T05:02:32;799.10;;;647.38;;
27740;SDS011;15134;48.768;9.184;2024-03-02T05:04:59;804.83;;;656.83;;
27740;SDS011;15134;48.768;9.184;2024-03-02T05:07:26;799.50;;;644.53;;
27740;SDS011;15134;48.768;9.184;2024-03-02T05:09:51;802.88;;;652.65;;
27740;SDS011;15134;48.768;9.184;2024-03-02T05:12:17;799.43;;;645.87;;
27740;SDS011;15134;48.768;9.184;2024-03-02T05:15:01;800.90;;;648.47;;
27740;SDS011;15134;48.768;9.184;2024-03-02T05:17:27;798.60;;;645.03;;
27740;SDS011;15134;48.768;9.184;2024-03-02T05:19:53;800.30;;;651.55;;
27740;SDS011;15134;48.768;9.184;2024-03-02T05:22:20;802.88;;;654.70;;
27740;SDS011;15134;48.768;9.184;2024-03-02T05:24:46;804.03;;;652.38;;
27740;SDS011;15134;48.768;9.184;2024-03-02T05:27:11;800.08;;;651.35;;
27740;SDS011;15134;48.768;9.184;2024-03-02T05:29:37;802.70;;;656.38;;
27740;SDS011;15134;48.768;9.184;2024-03-02T05:32:03;803.67;;;657.57;;
27740;SDS011;15134;48.768;9.184;2024-03-02T05:34:29;800.67;;;649.40;;
27740;SDS011;15134;48.768;9.184;2024-03-02T05:36:55;803.05;;;651.35;;
27740;SDS011;15134;48.768;9.184;2024-03-02T05:39:22;799.63;;;649.80;;
27740;SDS011;15134;48.768;9.184;2024-03-02T05:41:48;800.78;;;650.45;;
27740;SDS011;15134;48.768;9.184;2024-03-02T05:44:14;798.83;;;643.13;;
27740;SDS011;15134;48.768;9.184;2024-03-02T05:46:41;802.25;;;652.33;;
27740;SDS011;15134;48.768;9.184;2024-03-02T05:49:07;803.10;;;654.35;;
27740;SDS011;15134;48.768;9.184;2024-03-02T05:51:34;798.88;;;645.95;;
27740;SDS011;15134;48.768;9.184;2024-03-02T05:54:00;805.92;;;658.75;;
27740;SDS011;15134;48.768;9.184;2024-03-02T05:56:26;800.40;;;648.72;;
27740;SDS011;15134;48.768;9.184;2024-03-02T05:58:52;799.88;;;648.47;;
27740;SDS011;15134;48.768;9.184;2024-03-02T06:01:37;797.40;;;643.97;;
27740;SDS011;15134;48.768;9.184;2024-03-02T06:04:04;801.17;;;651.38;;
27740;SDS011;15134;48.768;9.184;2024-03-02T06:06:30;800.08;;;647.97;;
27740;SDS011;15134;48.768;9.184;2024-03-02T06:08:59;807.72;;;651.08;;
27740;SDS011;15134;48.768;9.184;2024-03-02T06:11:33;799.38;;;646.03;;
27740;SDS011;15134;48.768;9.184;2024-03-02T06:14:08;807.45;;;653.88;;
27740;SDS011;15134;48.768;9.184;2024-03-02T06:16:35;810.58;;;652.55;;
27740;SDS011;15134;48.768;9.184;2024-03-02T06:19:00;809.40;;;657.63;;
27740;SDS011;15134;48.768;9.184;2024-03-02T06:21:27;812.33;;;651.20;;
27740;SDS011;15134;48.768;9.184;2024-03-02T06:23:53;806.60;;;648.97;;
27740;SDS011;15134;48.768;9.184;2024-03-02T06:26:19;806.88;;;652.25;;
27740;SDS011;15134;48.768;9.184;2024-03-02T06:28:45;814.63;;;658.63;;
27740;SDS011;15134;48.768;9.184;2024-03-02T06:31:11;804.25;;;652.47;;
27740;SDS011;15134;48.768;9.184;2024-03-02T06:33:37;801.03;;;652.75;;
27740;SDS011;15134;48.768;9.184;2024-03-02T06:36:03;802.55;;;649.85;;
27740;SDS011;15134;48.768;9.184;2024-03-02T06:38:29;803.57;;;654.47;;
27740;SDS011;15134;48.768;9.184;2024-03-02T06:40:57;803.22;;;650.45;;
27740;SDS011;15134;48.768;9.184;2024-03-02T06:43:23;800.88;;;654.20;;
27740;SDS011;15134;48.768;9.184;2024-03-02T06:45:52;804.40;;;654.13;;
27740;SDS011;15134;48.768;9.184;2024-03-02T06:48:18;809.67;;;658.88;;
27740;SDS011;15134;48.768;9.184;2024-03-02T06:50:46;804.25;;;654.15;;
27740;SDS011;15134;48.768;9.184;2024-03-02T06:53:15;807.10;;;661.08;;
27740;SDS011;15134;48.768;9.184;2024-03-02T06:55:45;800.50;;;651.30;;
27740;SDS011;15134;48.768;9.184;2024-03-02T06:58:14;807.80;;;661.43;;
27740;SDS011;15134;48.768;9.184;2024-03-02T07:00:43;808.93;;;665.67;;
27740;SDS011;15134;48.768;9.184;2024-03-02T07:03:09;809.88;;;666.75;;
27740;SDS011;15134;48.768;9.184;2024-03-02T07:05:35;805.10;;;664.78;;
27740;SDS011;15134;48.768;9.184;2024-03-02T07:08:01;800.83;;;654.47;;
27740;SDS011;15134;48.768;9.184;2024-03-02T07:10:27;805.85;;;661.75;;
27740;SDS011;15134;48.768;9.184;2024-03-02T07:12:57;804.95;;;664.20;;
27740;SDS011;15134;48.768;9.184;2024-03-02T07:15:22;807.35;;;667.80;;
27740;SDS011;15134;48.768;9.184;2024-03-02T07:18:06;804.92;;;662.88;;
27740;SDS011;15134;48.768;9.184;2024-03-02T07:20:32;804.07;;;659.00;;
27740;SDS011;15134;48.768;9.184;2024-03-02T07:22:58;809.03;;;671.30;;
27740;SDS011;15134;48.768;9.184;2024-03-02T07:25:23;803.65;;;656.97;;
27740;SDS011;15134;48.768;9.184;2024-03-02T07:27:49;810.08;;;674.83;;
27740;SDS011;15134;48.768;9.184;2024-03-02T07:30:16;811.28;;;674.88;;
27740;SDS011;15134;48.768;9.184;2024-03-02T07:32:41;808.95;;;671.70;;
27740;SDS011;15134;48.768;9.184;2024-03-02T07:35:11;806.80;;;668.40;;
27740;SDS011;15134;48.768;9.184;2024-03-02T07:37:38;809.28;;;676.33;;
27740;SDS011;15134;48.768;9.184;2024-03-02T07:40:05;811.57;;;677.27;;
27740;SDS011;15134;48.768;9.184;2024-03-02T07:42:34;815.63;;;686.63;;
27740;SDS011;15134;48.768;9.184;2024-03-02T07:45:00;817.05;;;681.78;;
27740;SDS011;15134;48.768;9.184;2024-03-02T07:47:26;818.75;;;686.47;;
27740;SDS011;15134;48.768;9.184;2024-03-02T07:49:51;817.70;;;688.33;;
27740;SDS011;15134;48.768;9.184;2024-03-02T07:52:17;820.77;;;694.23;;
27740;SDS011;15134;48.768;9.184;2024-03-02T07:54:43;817.90;;;694.53;;
27740;SDS011;15134;48.768;9.184;2024-03-02T07:57:09;817.13;;;692.85;;
27740;SDS011;15134;48.768;9.184;2024-03-02T07:59:35;818.50;;;692.88;;
27740;SDS011;15134;48.768;9.184;2024-03-02T08:02:02;818.85;;;697.75;;
27740;SDS011;15134;48.768;9.184;2024-03-02T08:04:28;817.47;;;693.03;;
27740;SDS011;15134;48.768;9.184;2024-03-02T08:06:54;815.92;;;689.55;;
27740;SDS011;15134;48.768;9.184;2024-03-02T08:09:20;819.08;;;693.33;;
27740;SDS011;15134;48.768;9.184;2024-03-02T08:11:46;812.63;;;683.70;;
27740;SDS011;15134;48.768;9.184;2024-03-02T08:14:11;816.80;;;694.63;;
27740;SDS011;15134;48.768;9.184;2024-03-02T08:16:37;819.50;;;699.22;;
27740;SDS011;15134;48.768;9.184;2024-03-02T08:19:03;821.30;;;700.55;;
27740;SDS011;15134;48.768;9.184;2024-03-02T08:21:29;817.72;;;693.83;;
27740;SDS011;15134;48.768;9.184;2024-03-02T08:23:56;823.05;;;707.17;;
27740;SDS011;15134;48.768;9.184;2024-03-02T08:26:23;824.40;;;711.42;;
27740;SDS011;15134;48.768;9.184;2024-03-02T08:28:48;823.13;;;705.97;;
27740;SDS011;15134;48.768;9.184;2024-03-02T08:31:14;824.28;;;714.55;;
27740;SDS011;15134;48.768;9.184;2024-03-02T08:33:40;830.90;;;719.20;;
27740;SDS011;15134;48.768;9.184;2024-03-02T08:36:06;826.03;;;717.27;;
27740;SDS011;15134;48.768;9.184;2024-03-02T08:38:32;831.72;;;732.10;;
27740;SDS011;15134;48.768;9.184;2024-03-02T08:40:58;833.47;;;737.65;;
27740;SDS011;15134;48.768;9.184;2024-03-02T08:43:24;854.10;;;760.22;;
27740;SDS011;15134;48.768;9.184;2024-03-02T08:45:50;898.95;;;795.22;;
27740;SDS011;15134;48.768;9.184;2024-03-02T08:48:16;924.70;;;824.35;;
27740;SDS011;15134;48.768;9.184;2024-03-02T08:50:41;950.30;;;849.70;;
27740;SDS011;15134;48.768;9.184;2024-03-02T08:53:09;975.75;;;875.20;;
27740;SDS011;15134;48.768;9.184;2024-03-02T08:55:34;1008.40;;;907.15;;
27740;SDS011;15134;48.768;9.184;2024-03-02T08:58:00;1051.22;;;947.72;;
27740;SDS011;15134;48.768;9.184;2024-03-02T09:00:26;1079.90;;;975.72;;
27740;SDS011;15134;48.768;9.184;2024-03-02T09:02:51;1109.00;;;999.90;;
27740;SDS011;15134;48.768;9.184;2024-03-02T09:05:17;1134.63;;;999.90;;
27740;SDS011;15134;48.768;9.184;2024-03-02T09:07:43;1155.82;;;999.90;;
27740;SDS011;15134;48.768;9.184;2024-03-02T09:10:09;1170.13;;;999.90;;
27740;SDS011;15134;48.768;9.184;2024-03-02T09:12:35;1184.57;;;999.90;;
27740;SDS011;15134;48.768;9.184;2024-03-02T09:15:01;1193.03;;;999.90;;
27740;SDS011;15134;48.768;9.184;2024-03-02T09:17:28;1196.78;;;999.90;;
27740;SDS011;15134;48.768;9.184;2024-03-02T09:19:54;1199.28;;;999.90;;
27740;SDS011;15134;48.768;9.184;2024-03-02T09:22:20;1186.70;;;999.90;;
27740;SDS011;15134;48.768;9.184;2024-03-02T09:24:46;1177.07;;;999.90;;
27740;SDS011;15134;48.768;9.184;2024-03-02T09:27:12;1167.47;;;999.90;;
27740;SDS011;15134;48.768;9.184;2024-03-02T09:29:38;1159.80;;;999.90;;
27740;SDS011;15134;48.768;9.184;2024-03-02T09:32:05;1153.03;;;999.90;;
27740;SDS011;15134;48.768;9.184;2024-03-02T09:34:31;1145.75;;;999.90;;
27740;SDS011;15134;48.768;9.184;2024-03-02T09:36:57;1135.63;;;999.90;;
27740;SDS011;15134;48.768;9.184;2024-03-02T09:39:23;1116.38;;;999.90;;
27740;SDS011;15134;48.768;9.184;2024-03-02T09:41:50;1092.47;;;988.63;;
27740;SDS011;15134;48.768;9.184;2024-03-02T09:44:16;1079.28;;;976.67;;
27740;SDS011;15134;48.768;9.184;2024-03-02T09:46:42;1065.65;;;963.35;;
27740;SDS011;15134;48.768;9.184;2024-03-02T09:49:09;1046.77;;;945.23;;
27740;SDS011;15134;48.768;9.184;2024-03-02T09:51:37;1029.03;;;928.42;;
27740;SDS011;15134;48.768;9.184;2024-03-02T09:54:02;1018.97;;;917.83;;
27740;SDS011;15134;48.768;9.184;2024-03-02T09:56:29;1010.70;;;909.03;;
27740;SDS011;15134;48.768;9.184;2024-03-02T09:58:54;1002.07;;;901.23;;
27740;SDS011;15134;48.768;9.184;2024-03-02T10:01:20;999.70;;;898.93;;
27740;SDS011;15134;48.768;9.184;2024-03-02T10:03:46;999.90;;;899.28;;
27740;SDS011;15134;48.768;9.184;2024-03-02T10:06:18;1006.28;;;904.78;;
27740;SDS011;15134;48.768;9.184;2024-03-02T10:08:47;992.88;;;893.30;;
27740;SDS011;15134;48.768;9.184;2024-03-02T10:11:30;991.92;;;892.40;;
27740;SDS011;15134;48.768;9.184;2024-03-02T10:14:08;991.58;;;893.08;;
27740;SDS011;15134;48.768;9.184;2024-03-02T10:16:36;989.42;;;891.13;;
27740;SDS011;15134;48.768;9.184;2024-03-02T10:19:19;989.97;;;891.85;;
27740;SDS011;15134;48.768;9.184;2024-03-02T10:21:50;981.45;;;882.72;;
27740;SDS011;15134;48.768;9.184;2024-03-02T10:24:20;975.70;;;876.72;;
27740;SDS011;15134;48.768;9.184;2024-03-02T10:26:47;968.97;;;871.75;;
27740;SDS011;15134;48.768;9.184;2024-03-02T10:29:13;976.30;;;878.20;;
27740;SDS011;15134;48.768;9.184;2024-03-02T10:31:40;971.28;;;873.67;;
27740;SDS011;15134;48.768;9.184;2024-03-02T10:34:07;963.78;;;867.38;;
27740;SDS011;15134;48.768;9.184;2024-03-02T10:36:34;977.40;;;877.38;;
27740;SDS011;15134;48.768;9.184;2024-03-02T10:39:03;974.58;;;876.35;;
27740;SDS011;15134;48.768;9.184;2024-03-02T10:41:34;978.13;;;881.33;;
27740;SDS011;15134;48.768;9.184;2024-03-02T10:44:02;978.45;;;881.72;;
27740;SDS011;15134;48.768;9.184;2024-03-02T10:46:32;978.75;;;881.38;;
27740;SDS011;15134;48.768;9.184;2024-03-02T10:48:59;961.57;;;865.03;;
27740;SDS011;15134;48.768;9.184;2024-03-02T10:51:26;964.83;;;868.70;;
27740;SDS011;15134;48.768;9.184;2024-03-02T10:53:57;969.25;;;872.47;;
27740;SDS011;15134;48.768;9.184;2024-03-02T10:56:30;956.88;;;861.00;;
27740;SDS011;15134;48.768;9.184;2024-03-02T10:59:02;952.92;;;855.17;;
27740;SDS011;15134;48.768;9.184;2024-03-02T11:01:31;936.63;;;840.72;;
27740;SDS011;15134;48.768;9.184;2024-03-02T11:03:59;936.22;;;840.47;;
27740;SDS011;15134;48.768;9.184;2024-03-02T11:06:29;940.60;;;844.90;;
27740;SDS011;15134;48.768;9.184;2024-03-02T11:08:58;945.70;;;849.80;;
27740;SDS011;15134;48.768;9.184;2024-03-02T11:11:32;939.55;;;843.85;;
27740;SDS011;15134;48.768;9.184;2024-03-02T11:14:02;939.03;;;842.92;;
27740;SDS011;15134;48.768;9.184;2024-03-02T11:16:34;947.85;;;850.95;;
27740;SDS011;15134;48.768;9.184;2024-03-02T11:19:08;944.30;;;848.08;;
27740;SDS011;15134;48.768;9.184;2024-03-02T11:21:39;945.20;;;848.67;;
27740;SDS011;15134;48.768;9.184;2024-03-02T11:26:47;945.67;;;848.45;;
27740;SDS011;15134;48.768;9.184;2024-03-02T11:32:01;951.10;;;853.03;;
27740;SDS011;15134;48.768;9.184;2024-03-02T11:34:29;954.00;;;857.38;;
27740;SDS011;15134;48.768;9.184;2024-03-02T11:36:56;964.13;;;866.92;;
27740;SDS011;15134;48.768;9.184;2024-03-02T11:39:28;953.63;;;856.83;;
27740;SDS011;15134;48.768;9.184;2024-03-02T11:41:55;952.00;;;855.33;;
27740;SDS011;15134;48.768;9.184;2024-03-02T11:44:25;955.27;;;858.40;;
27740;SDS011;15134;48.768;9.184;2024-03-02T11:46:53;956.70;;;859.73;;
27740;SDS011;15134;48.768;9.184;2024-03-02T11:49:37;944.95;;;848.50;;
27740;SDS011;15134;48.768;9.184;2024-03-02T11:52:07;942.15;;;844.90;;
27740;SDS011;15134;48.768;9.184;2024-03-02T11:54:39;947.50;;;850.80;;
27740;SDS011;15134;48.768;9.184;2024-03-02T11:57:11;946.50;;;849.67;;
27740;SDS011;15134;48.768;9.184;2024-03-02T11:59:40;943.45;;;846.45;;
27740;SDS011;15134;48.768;9.184;2024-03-02T12:02:06;948.40;;;851.80;;
27740;SDS011;15134;48.768;9.184;2024-03-02T12:04:38;951.95;;;854.80;;
27740;SDS011;15134;48.768;9.184;2024-03-02T12:07:03;944.53;;;847.72;;
27740;SDS011;15134;48.768;9.184;2024-03-02T12:09:29;946.40;;;849.63;;
27740;SDS011;15134;48.768;9.184;2024-03-02T12:12:03;950.88;;;853.95;;
27740;SDS011;15134;48.768;9.184;2024-03-02T12:14:36;936.22;;;839.97;;
27740;SDS011;15134;48.768;9.184;2024-03-02T12:17:04;940.55;;;843.90;;
27740;SDS011;15134;48.768;9.184;2024-03-02T12:19:31;945.75;;;848.75;;
27740;SDS011;15134;48.768;9.184;2024-03-02T12:21:58;942.83;;;845.80;;
27740;SDS011;15134;48.768;9.184;2024-03-02T12:24:29;943.85;;;847.30;;
27740;SDS011;15134;48.768;9.184;2024-03-02T12:26:55;947.63;;;850.53;;
27740;SDS011;15134;48.768;9.184;2024-03-02T12:29:21;951.08;;;853.47;;
27740;SDS011;15134;48.768;9.184;2024-03-02T12:31:51;951.30;;;854.03;;
27740;SDS011;15134;48.768;9.184;2024-03-02T12:34:17;950.70;;;853.70;;
27740;SDS011;15134;48.768;9.184;2024-03-02T12:36:45;953.83;;;856.53;;
27740;SDS011;15134;48.768;9.184;2024-03-02T12:39:14;956.30;;;859.00;;
27740;SDS011;15134;48.768;9.184;2024-03-02T12:41:41;962.53;;;864.40;;
27740;SDS011;15134;48.768;9.184;2024-03-02T12:44:07;954.05;;;856.45;;
27740;SDS011;15134;48.768;9.184;2024-03-02T12:46:33;950.22;;;853.08;;
27740;SDS011;15134;48.768;9.184;2024-03-02T12:49:10;949.42;;;852.58;;
27740;SDS011;15134;48.768;9.184;2024-03-02T12:51:39;948.63;;;851.78;;
27740;SDS011;15134;48.768;9.184;2024-03-02T12:54:09;945.05;;;848.22;;
27740;SDS011;15134;48.768;9.184;2024-03-02T12:56:36;942.00;;;845.30;;
27740;SDS011;15134;48.768;9.184;2024-03-02T12:59:03;933.15;;;836.78;;
27740;SDS011;15134;48.768;9.184;2024-03-02T13:01:29;934.08;;;837.55;;
27740;SDS011;15134;48.768;9.184;2024-03-02T13:03:57;932.75;;;836.35;;
27740;SDS011;15134;48.768;9.184;2024-03-02T13:06:24;930.85;;;834.25;;
27740;SDS011;15134;48.768;9.184;2024-03-02T13:08:53;935.63;;;838.83;;
27740;SDS011;15134;48.768;9.184;2024-03-02T13:11:19;934.70;;;838.20;;
27740;SDS011;15134;48.768;9.184;2024-03-02T13:13:47;926.75;;;830.80;;
27740;SDS011;15134;48.768;9.184;2024-03-02T13:16:13;925.22;;;829.38;;
27740;SDS011;15134;48.768;9.184;2024-03-02T13:18:40;927.43;;;831.40;;
27740;SDS011;15134;48.768;9.184;2024-03-02T13:21:06;926.90;;;830.90;;
27740;SDS011;15134;48.768;9.184;2024-03-02T13:23:35;927.90;;;831.90;;
27740;SDS011;15134;48.768;9.184;2024-03-02T13:26:01;929.80;;;833.50;;
27740;SDS011;15134;48.768;9.184;2024-03-02T13:28:27;931.67;;;835.17;;
27740;SDS011;15134;48.768;9.184;2024-03-02T13:30:53;917.35;;;821.85;;
27740;SDS011;15134;48.768;9.184;2024-03-02T13:33:19;926.70;;;830.50;;
27740;SDS011;15134;48.768;9.184;2024-03-02T13:35:51;932.20;;;835.73;;
27740;SDS011;15134;48.768;9.184;2024-03-02T13:38:20;923.60;;;827.58;;
27740;SDS011;15134;48.768;9.184;2024-03-02T13:40:46;923.63;;;827.60;;
27740;SDS011;15134;48.768;9.184;2024-03-02T13:43:17;921.70;;;825.60;;
27740;SDS011;15134;48.768;9.184;2024-03-02T13:45:46;917.42;;;821.72;;
27740;SDS011;15134;48.768;9.184;2024-03-02T13:48:12;925.58;;;829.50;;
27740;SDS011;15134;48.768;9.184;2024-03-02T13:50:39;929.93;;;833.63;;
27740;SDS011;15134;48.768;9.184;2024-03-02T13:53:06;931.90;;;834.97;;
27740;SDS011;15134;48.768;9.184;2024-03-02T13:55:32;927.90;;;830.63;;
27740;SDS011;15134;48.768;9.184;2024-03-02T13:57:58;920.60;;;824.58;;
27740;SDS011;15134;48.768;9.184;2024-03-02T14:00:24;922.35;;;826.13;;
27740;SDS011;15134;48.768;9.184;2024-03-02T14:02:50;927.80;;;831.60;;